Time;durP1;ratioP1;P1;durP2;ratioP2;P2;SDS_P1;SDS_P2;PMS_P1;PMS_P2;Temp;Humidity;BMP_temperature;BMP_pressure;BME280_temperature;BME280_humidity;BME280_pressure;Samples;Min_cycle;Max_cycle;Signal;HPM_P1;HPM_P2
2023/05/24 00:00:31;;;;;;;;;;;;;;;6.78;100.00;102438.16;5028455;28;19921;-83
2023/05/24 00:02:56;;;;;;;;;;;;;;;6.73;100.00;102433.00;5022985;28;19917;-83
2023/05/24 00:05:22;;;;;;;;;;;;;;;6.69;100.00;102434.03;5027749;28;19986;-83
2023/05/24 00:07:47;;;;;;;;;;;;;;;6.67;100.00;102437.69;5040394;28;20015;-83
2023/05/24 00:10:13;;;;;;;;;;;;;;;6.60;100.00;102424.56;5045928;28;19960;-83
2023/05/24 00:12:38;;;;;;;;;;;;;;;6.60;100.00;102418.38;5043047;28;19973;-82
2023/05/24 00:15:03;;;;;;;;;;;;;;;6.60;100.00;102418.38;5027996;28;19920;-83
2023/05/24 00:17:29;;;;;;;;;;;;;;;6.58;100.00;102415.75;5024414;28;19924;-83
2023/05/24 00:19:54;;;;;;;;;;;;;;;6.55;100.00;102417.66;5028508;28;19920;-83
2023/05/24 00:22:20;;;;;;;;;;;;;;;6.50;100.00;102409.78;5045634;28;19921;-83
2023/05/24 00:24:45;;;;;;;;;;;;;;;6.49;100.00;102417.88;5025607;28;20310;-83
2023/05/24 00:27:10;;;;;;;;;;;;;;;6.39;100.00;102411.97;5042452;28;19924;-86
2023/05/24 00:29:36;;;;;;;;;;;;;;;6.37;100.00;102414.69;5030774;28;19924;-86
2023/05/24 00:32:01;;;;;;;;;;;;;;;6.38;100.00;102413.75;5030266;28;19928;-86
2023/05/24 00:34:26;;;;;;;;;;;;;;;6.35;100.00;102408.56;5026071;28;19920;-86
2023/05/24 00:36:51;;;;;;;;;;;;;;;6.36;100.00;102407.59;5026360;28;19920;-87
2023/05/24 00:39:18;;;;;;;;;;;;;;;6.31;100.00;102404.25;5024843;28;19931;-86
2023/05/24 00:41:43;;;;;;;;;;;;;;;6.23;100.00;102406.31;5026424;28;19923;-86
2023/05/24 00:44:09;;;;;;;;;;;;;;;6.16;100.00;102400.31;5033307;28;19924;-87
2023/05/24 00:46:35;;;;;;;;;;;;;;;6.12;100.00;102399.53;5026150;28;19921;-86
2023/05/24 00:49:00;;;;;;;;;;;;;;;6.12;100.00;102401.34;5040475;28;20333;-86
2023/05/24 00:51:29;;;;;;;;;;;;;;;6.10;100.00;102401.38;5039015;28;20325;-87
2023/05/24 00:53:54;;;;;;;;;;;;;;;6.08;100.00;102399.69;5025090;28;19921;-86
2023/05/24 00:56:19;;;;;;;;;;;;;;;6.06;100.00;102401.53;5059170;28;19974;-86
2023/05/24 00:58:45;;;;;;;;;;;;;;;6.03;100.00;102401.63;5023547;28;20002;-87
2023/05/24 01:01:10;;;;;;;;;;;;;;;6.00;100.00;102400.81;5024807;28;20311;-87
2023/05/24 01:03:35;;;;;;;;;;;;;;;6.00;100.00;102397.31;5055923;28;19928;-87
2023/05/24 01:06:05;;;;;;;;;;;;;;;5.93;100.00;102388.59;5024468;28;19921;-86
2023/05/24 01:08:39;;;;;;;;;;;;;;;5.86;100.00;102384.41;5039948;28;19964;-86
2023/05/24 01:11:17;;;;;;;;;;;;;;;5.81;100.00;102383.66;5044629;28;19925;-87
2023/05/24 01:13:46;;;;;;;;;;;;;;;5.70;100.00;102366.22;5040888;28;19920;-86
2023/05/24 01:16:31;;;;;;;;;;;;;;;5.80;100.00;102374.81;5043240;28;19921;-87
2023/05/24 01:18:58;;;;;;;;;;;;;;;5.76;100.00;102369.63;5039919;28;19970;-87
2023/05/24 01:21:37;;;;;;;;;;;;;;;5.74;100.00;102382.13;5020916;28;19923;-86
2023/05/24 01:24:21;;;;;;;;;;;;;;;5.73;100.00;102381.25;5018990;28;19944;-87
2023/05/24 01:27:06;;;;;;;;;;;;;;;5.67;100.00;102381.47;5044292;28;19964;-87
2023/05/24 01:29:31;;;;;;;;;;;;;;;5.59;100.00;102380.81;5038651;28;20743;-87
2023/05/24 01:31:56;;;;;;;;;;;;;;;5.55;100.00;102375.63;5038416;28;20020;-87
2023/05/24 01:34:23;;;;;;;;;;;;;;;5.54;100.00;102378.31;5042224;28;19921;-86
2023/05/24 01:36:49;;;;;;;;;;;;;;;5.54;100.00;102376.53;5041216;28;19935;-86
2023/05/24 01:39:14;;;;;;;;;;;;;;;5.56;100.00;102381.81;5021318;28;19924;-87
2023/05/24 01:41:58;;;;;;;;;;;;;;;5.56;100.00;102368.47;5033717;28;20283;-87
2023/05/24 01:44:23;;;;;;;;;;;;;;;5.52;100.00;102366.81;5040998;28;20255;-87
2023/05/24 01:46:49;;;;;;;;;;;;;;;5.52;100.00;102370.38;5043131;28;19921;-87
2023/05/24 01:49:25;;;;;;;;;;;;;;;5.52;100.00;102374.81;5040214;28;19967;-87
2023/05/24 01:51:52;;;;;;;;;;;;;;;5.47;100.00;102380.31;5042784;28;19921;-87
2023/05/24 01:54:22;;;;;;;;;;;;;;;5.44;100.00;102377.75;5043740;28;19925;-86
2023/05/24 01:56:47;;;;;;;;;;;;;;;5.40;100.00;102378.75;5032471;28;19968;-87
2023/05/24 01:59:14;;;;;;;;;;;;;;;5.34;100.00;102382.47;5029282;28;20016;-87
2023/05/24 02:01:39;;;;;;;;;;;;;;;5.31;100.00;102392.34;5025176;28;19956;-87
2023/05/24 02:04:04;;;;;;;;;;;;;;;5.32;100.00;102392.31;5027611;28;19998;-86
2023/05/24 02:06:30;;;;;;;;;;;;;;;5.29;100.00;102392.41;5020976;28;19947;-87
2023/05/24 02:08:55;;;;;;;;;;;;;;;5.29;100.00;102388.88;5041117;28;20015;-87
2023/05/24 02:11:21;;;;;;;;;;;;;;;5.28;100.00;102388.00;5023687;28;20354;-86
2023/05/24 02:13:47;;;;;;;;;;;;;;;5.31;100.00;102389.69;5032077;28;19989;-87
2023/05/24 02:16:12;;;;;;;;;;;;;;;5.28;100.00;102385.31;5025243;28;20729;-86
2023/05/24 02:18:37;;;;;;;;;;;;;;;5.28;100.00;102389.81;5031299;28;19928;-87
2023/05/24 02:21:02;;;;;;;;;;;;;;;5.19;100.00;102389.16;5029089;28;19917;-86
2023/05/24 02:23:28;;;;;;;;;;;;;;;5.16;100.00;102386.56;5032908;28;19925;-87
2023/05/24 02:25:54;;;;;;;;;;;;;;;5.16;100.00;102393.72;5041924;28;19919;-87
2023/05/24 02:28:19;;;;;;;;;;;;;;;5.15;100.00;102395.47;5024081;28;19924;-87
2023/05/24 02:30:45;;;;;;;;;;;;;;;5.15;100.00;102390.16;5020670;28;19917;-87
2023/05/24 02:33:11;;;;;;;;;;;;;;;5.12;100.00;102389.38;5028722;28;19932;-88
2023/05/24 02:35:36;;;;;;;;;;;;;;;5.07;100.00;102387.72;5030792;28;19920;-87
2023/05/24 02:38:05;;;;;;;;;;;;;;;4.98;100.00;102393.31;5045913;28;20613;-88
2023/05/24 02:40:30;;;;;;;;;;;;;;;4.90;100.00;102382.03;5027412;28;20047;-88
2023/05/24 02:42:56;;;;;;;;;;;;;;;4.86;100.00;102389.22;5028420;28;20020;-88
2023/05/24 02:45:21;;;;;;;;;;;;;;;4.82;100.00;102394.69;5034080;28;19917;-87
2023/05/24 02:47:46;;;;;;;;;;;;;;;4.78;100.00;102389.44;5028700;28;19921;-87
2023/05/24 02:50:12;;;;;;;;;;;;;;;4.83;100.00;102384.00;5029597;28;19917;-87
2023/05/24 02:52:37;;;;;;;;;;;;;;;4.84;100.00;102385.72;5045598;28;20063;-87
2023/05/24 02:55:02;;;;;;;;;;;;;;;4.82;100.00;102392.03;5027998;28;19917;-86
2023/05/24 02:57:28;;;;;;;;;;;;;;;4.85;100.00;102390.13;5045225;28;19928;-87
2023/05/24 02:59:53;;;;;;;;;;;;;;;4.88;100.00;102383.88;5028704;28;19928;-87
2023/05/24 03:02:20;;;;;;;;;;;;;;;4.87;100.00;102393.63;5028737;28;19933;-86
2023/05/24 03:04:46;;;;;;;;;;;;;;;4.87;100.00;102387.44;5025761;28;20766;-87
2023/05/24 03:07:13;;;;;;;;;;;;;;;4.89;100.00;102391.81;5045172;28;19928;-87
2023/05/24 03:09:39;;;;;;;;;;;;;;;4.88;100.00;102391.84;5038700;28;19925;-86
2023/05/24 03:12:04;;;;;;;;;;;;;;;4.86;100.00;102386.56;5023034;28;20240;-86
2023/05/24 03:14:29;;;;;;;;;;;;;;;4.87;100.00;102387.44;5044373;28;19920;-87
2023/05/24 03:16:55;;;;;;;;;;;;;;;4.87;100.00;102380.31;5035328;28;19928;-87
2023/05/24 03:19:20;;;;;;;;;;;;;;;4.86;100.00;102381.25;5030071;28;19924;-87
2023/05/24 03:21:48;;;;;;;;;;;;;;;4.90;100.00;102392.69;5034919;28;19967;-87
2023/05/24 03:24:13;;;;;;;;;;;;;;;4.93;100.00;102381.94;5051800;28;20012;-87
2023/05/24 03:26:42;;;;;;;;;;;;;;;4.92;100.00;102383.72;5031092;28;20055;-87
2023/05/24 03:29:07;;;;;;;;;;;;;;;4.97;100.00;102380.91;5020783;28;19921;-87
2023/05/24 03:31:35;;;;;;;;;;;;;;;4.99;100.00;102376.44;5025199;28;19917;-87
2023/05/24 03:34:00;;;;;;;;;;;;;;;5.01;100.00;102371.94;5025090;28;19923;-87
2023/05/24 03:36:27;;;;;;;;;;;;;;;5.03;100.00;102372.75;5025124;28;20409;-86
2023/05/24 03:38:53;;;;;;;;;;;;;;;5.01;100.00;102371.94;5057917;28;19920;-87
2023/05/24 03:41:19;;;;;;;;;;;;;;;5.06;100.00;102377.09;5015519;28;19921;-87
2023/05/24 03:43:44;;;;;;;;;;;;;;;5.13;100.00;102384.00;5043524;28;19924;-86
2023/05/24 03:46:09;;;;;;;;;;;;;;;5.12;100.00;102379.59;5045057;28;19921;-86
2023/05/24 03:48:34;;;;;;;;;;;;;;;5.10;100.00;102377.00;5033600;28;19986;-87
2023/05/24 03:51:00;;;;;;;;;;;;;;;5.12;100.00;102379.59;5044503;28;20397;-86
2023/05/24 03:53:25;;;;;;;;;;;;;;;5.17;100.00;102368.78;5029032;28;19920;-86
2023/05/24 03:55:50;;;;;;;;;;;;;;;5.20;100.00;102364.28;5045712;28;20390;-85
2023/05/24 03:58:16;;;;;;;;;;;;;;;5.20;100.00;102360.72;5025677;28;20030;-86
2023/05/24 04:00:41;;;;;;;;;;;;;;;5.23;100.00;102364.19;5028921;28;20015;-87
2023/05/24 04:03:07;;;;;;;;;;;;;;;5.30;100.00;102356.00;5023759;28;19982;-86
2023/05/24 04:05:33;;;;;;;;;;;;;;;5.33;100.00;102359.44;5045480;28;19928;-87
2023/05/24 04:07:58;;;;;;;;;;;;;;;5.43;100.00;102359.16;5041411;28;19925;-86
2023/05/24 04:10:26;;;;;;;;;;;;;;;5.52;100.00;102372.16;5027948;28;19928;-88
2023/05/24 04:12:52;;;;;;;;;;;;;;;5.55;100.00;102364.06;5028544;28;19920;-87
2023/05/24 04:15:17;;;;;;;;;;;;;;;5.61;100.00;102368.31;5028094;28;20399;-87
2023/05/24 04:17:43;;;;;;;;;;;;;;;5.61;100.00;102371.88;5026629;28;19928;-86
2023/05/24 04:20:13;;;;;;;;;;;;;;;5.63;100.00;102371.81;5025913;28;19947;-87
2023/05/24 04:22:39;;;;;;;;;;;;;;;5.56;100.00;102355.16;5027794;28;19955;-87
2023/05/24 04:25:07;;;;;;;;;;;;;;;5.73;100.00;102373.28;5026506;28;19956;-87
2023/05/24 04:27:35;;;;;;;;;;;;;;;5.79;100.00;102370.41;5025084;28;19928;-86
2023/05/24 04:30:00;;;;;;;;;;;;;;;5.86;100.00;102365.72;5023810;28;20024;-87
2023/05/24 04:32:29;;;;;;;;;;;;;;;5.98;100.00;102375.97;5028180;28;20355;-86
2023/05/24 04:34:54;;;;;;;;;;;;;;;6.10;100.00;102379.19;5028612;28;19959;-87
2023/05/24 04:37:19;;;;;;;;;;;;;;;6.21;100.00;102378.81;5023660;28;19964;-87
2023/05/24 04:39:44;;;;;;;;;;;;;;;6.35;100.00;102376.56;5027088;28;20380;-86
2023/05/24 04:42:10;;;;;;;;;;;;;;;6.50;100.00;102377.78;5024952;28;20274;-87
2023/05/24 04:44:35;;;;;;;;;;;;;;;6.63;100.00;102380.00;5028008;28;20003;-86
2023/05/24 04:47:02;;;;;;;;;;;;;;;6.73;100.00;102379.63;5021159;28;19951;-87
2023/05/24 04:49:28;;;;;;;;;;;;;;;6.87;100.00;102384.44;5027089;28;20016;-87
2023/05/24 04:51:53;;;;;;;;;;;;;;;6.96;100.00;102391.22;5026099;28;19928;-87
2023/05/24 04:54:19;;;;;;;;;;;;;;;7.07;100.00;102382.81;5046176;28;19920;-86
2023/05/24 04:56:44;;;;;;;;;;;;;;;7.13;100.00;102397.75;5027268;28;20023;-87
2023/05/24 04:59:09;;;;;;;;;;;;;;;7.16;100.00;102393.16;5030258;28;20078;-86
2023/05/24 05:01:37;;;;;;;;;;;;;;;7.21;100.00;102400.97;5027036;28;19943;-87
2023/05/24 05:04:06;;;;;;;;;;;;;;;7.27;100.00;102398.06;5042462;28;19948;-87
2023/05/24 05:06:33;;;;;;;;;;;;;;;7.34;100.00;102394.22;5049788;28;19920;-87
2023/05/24 05:09:02;;;;;;;;;;;;;;;7.41;100.00;102396.69;5020382;28;19921;-87
2023/05/24 05:11:30;;;;;;;;;;;;;;;7.47;100.00;102380.38;5038395;28;19963;-86
2023/05/24 05:13:58;;;;;;;;;;;;;;;7.57;100.00;102386.22;5040924;28;19920;-87
2023/05/24 05:16:26;;;;;;;;;;;;;;;7.68;100.00;102386.66;5035597;28;19970;-87
2023/05/24 05:18:52;;;;;;;;;;;;;;;7.74;100.00;102389.09;5036354;28;20035;-87
2023/05/24 05:21:17;;;;;;;;;;;;;;;7.83;100.00;102389.63;5041394;28;20311;-87
2023/05/24 05:23:43;;;;;;;;;;;;;;;7.90;100.00;102383.97;5041469;28;19921;-87
2023/05/24 05:26:08;;;;;;;;;;;;;;;8.04;100.00;102390.53;5040126;28;19924;-87
2023/05/24 05:28:33;;;;;;;;;;;;;;;8.18;100.00;102396.19;5025075;28;20655;-87
2023/05/24 05:30:58;;;;;;;;;;;;;;;8.30;100.00;102385.88;5019744;28;20003;-87
2023/05/24 05:33:24;;;;;;;;;;;;;;;8.40;100.00;102393.44;5026382;28;19924;-87
2023/05/24 05:35:49;;;;;;;;;;;;;;;8.49;100.00;102397.53;5028876;28;20487;-87
2023/05/24 05:38:15;;;;;;;;;;;;;;;8.55;100.00;102396.41;5029216;28;20305;-87
2023/05/24 05:40:40;;;;;;;;;;;;;;;8.66;100.00;102395.94;5024907;28;19928;-87
2023/05/24 05:43:07;;;;;;;;;;;;;;;8.78;100.00;102397.19;5028670;28;20528;-87
2023/05/24 05:45:32;;;;;;;;;;;;;;;8.90;100.00;102390.41;5035411;28;20313;-87
2023/05/24 05:47:57;;;;;;;;;;;;;;;9.02;100.00;102392.50;5026142;28;19920;-86
2023/05/24 05:50:23;;;;;;;;;;;;;;;9.13;100.00;102387.53;5024899;28;19952;-87
2023/05/24 05:52:50;;;;;;;;;;;;;;;9.19;100.00;102386.34;5027458;28;19971;-87
2023/05/24 05:55:15;;;;;;;;;;;;;;;9.31;100.00;102387.56;5025546;28;19917;-87
2023/05/24 05:57:41;;;;;;;;;;;;;;;9.47;100.00;102384.19;5024916;28;19970;-87
2023/05/24 06:00:07;;;;;;;;;;;;;;;9.58;100.00;102382.72;5043502;28;19924;-87
2023/05/24 06:02:33;;;;;;;;;;;;;;;9.76;100.00;102382.75;5032224;28;20282;-87
2023/05/24 06:05:01;;;;;;;;;;;;;;;9.87;100.00;102391.13;5041512;28;20496;-87
2023/05/24 06:07:27;;;;;;;;;;;;;;;9.97;100.00;102394.22;5018567;28;20002;-87
2023/05/24 06:09:52;;;;;;;;;;;;;;;10.07;100.00;102394.63;5039576;28;20038;-86
2023/05/24 06:12:20;;;;;;;;;;;;;;;10.21;100.00;102389.38;5026127;28;19933;-87
2023/05/24 06:14:47;;;;;;;;;;;;;;;10.39;100.00;102399.28;5024126;28;20350;-87
2023/05/24 06:17:12;;;;;;;;;;;;;;;10.47;100.00;102402.44;5040005;28;20079;-88
2023/05/24 06:19:42;;;;;;;;;;;;;;;10.62;100.00;102407.00;5027184;28;20015;-88
2023/05/24 06:22:15;;;;;;;;;;;;;;;10.72;100.00;102398.47;5028507;28;19927;-88
2023/05/24 06:24:40;;;;;;;;;;;;;;;10.67;100.00;102408.56;5022983;28;19942;-86
2023/05/24 06:27:05;;;;;;;;;;;;;;;10.78;100.00;102407.06;5027190;28;19924;-88
2023/05/24 06:29:30;;;;;;;;;;;;;;;10.90;100.00;102408.22;5024327;28;19968;-88
2023/05/24 06:31:56;;;;;;;;;;;;;;;11.07;100.00;102406.44;5039555;28;19925;-87
2023/05/24 06:34:21;;;;;;;;;;;;;;;11.24;100.00;102417.13;5024383;28;19967;-87
2023/05/24 06:36:47;;;;;;;;;;;;;;;11.34;100.00;102414.78;5044823;28;19921;-87
2023/05/24 06:39:13;;;;;;;;;;;;;;;11.47;100.00;102414.09;5017080;28;20282;-87
2023/05/24 06:41:38;;;;;;;;;;;;;;;11.60;100.00;102406.19;5014518;28;19921;-87
2023/05/24 06:44:06;;;;;;;;;;;;;;;11.63;100.00;102403.34;5010972;28;19920;-87
2023/05/24 06:46:41;;;;;;;;;;;;;;;11.68;100.00;102403.91;5013545;28;19995;-88
2023/05/24 06:49:09;;;;;;;;;;;;;;;11.82;100.00;102406.69;5015585;28;19927;-85
2023/05/24 06:51:35;;;;;;;;;;;;;;;12.18;100.00;102417.25;5028974;28;19952;-88
2023/05/24 06:54:16;;;;;;;;;;;;;;;12.16;100.00;102420.00;5018110;28;19920;-87
2023/05/24 06:56:41;;;;;;;;;;;;;;;12.39;100.00;102421.34;5014463;28;19932;-87
2023/05/24 06:59:12;;;;;;;;;;;;;;;12.65;100.00;102418.88;5023214;28;19925;-87
2023/05/24 07:01:43;;;;;;;;;;;;;;;12.80;100.00;102413.50;5025752;28;19921;-87
2023/05/24 07:04:08;;;;;;;;;;;;;;;12.83;100.00;102414.19;5045772;28;19925;-89
2023/05/24 07:06:34;;;;;;;;;;;;;;;12.70;100.00;102415.91;5029103;28;20393;-87
2023/05/24 07:09:00;;;;;;;;;;;;;;;12.57;100.00;102418.47;5023977;28;19921;-88
2023/05/24 07:11:28;;;;;;;;;;;;;;;12.55;100.00;102413.19;5017670;28;19921;-87
2023/05/24 07:14:09;;;;;;;;;;;;;;;12.52;100.00;102421.47;5038690;28;19929;-88
2023/05/24 07:16:36;;;;;;;;;;;;;;;12.64;100.00;102422.53;5022358;28;19940;-87
2023/05/24 07:19:12;;;;;;;;;;;;;;;12.71;100.00;102420.31;5033290;28;19925;-87
2023/05/24 07:21:37;;;;;;;;;;;;;;;12.68;100.00;102416.00;5025659;28;19924;-86
2023/05/24 07:24:05;;;;;;;;;;;;;;;12.82;100.00;102428.63;5042769;28;19996;-88
2023/05/24 07:26:31;;;;;;;;;;;;;;;12.89;100.00;102423.72;5029955;28;19921;-87
2023/05/24 07:29:01;;;;;;;;;;;;;;;12.89;100.00;102421.88;5024837;28;20300;-87
2023/05/24 07:31:28;;;;;;;;;;;;;;;12.86;100.00;102418.50;5042952;28;19925;-88
2023/05/24 07:33:53;;;;;;;;;;;;;;;12.89;100.00;102424.56;5028630;28;19966;-88
2023/05/24 07:36:20;;;;;;;;;;;;;;;12.82;100.00;102425.03;5046464;28;19932;-88
2023/05/24 07:38:45;;;;;;;;;;;;;;;12.77;100.00;102430.72;5028808;28;19925;-87
2023/05/24 07:41:11;;;;;;;;;;;;;;;12.88;100.00;102427.38;5043240;28;20300;-86
2023/05/24 07:43:36;;;;;;;;;;;;;;;12.96;100.00;102430.47;5029606;28;20373;-87
2023/05/24 07:46:02;;;;;;;;;;;;;;;13.18;100.00;102426.41;5025617;28;20010;-88
2023/05/24 07:48:30;;;;;;;;;;;;;;;13.16;100.00;102428.31;5026096;28;20338;-87
2023/05/24 07:50:56;;;;;;;;;;;;;;;13.31;100.00;102423.78;5025045;28;19981;-87
2023/05/24 07:53:22;;;;;;;;;;;;;;;13.32;100.00;102425.53;5040835;28;20394;-87
2023/05/24 07:55:50;;;;;;;;;;;;;;;13.38;100.00;102426.94;5027564;28;19929;-87
2023/05/24 07:58:15;;;;;;;;;;;;;;;13.43;100.00;102424.84;5026250;28;19925;-87
2023/05/24 08:00:41;;;;;;;;;;;;;;;13.56;100.00;102417.69;5044394;28;19936;-87
2023/05/24 08:03:12;;;;;;;;;;;;;;;13.57;100.00;102413.16;5027255;28;19927;-88
2023/05/24 08:05:37;;;;;;;;;;;;;;;13.60;100.00;102415.66;5026230;28;19927;-85
2023/05/24 08:08:03;;;;;;;;;;;;;;;13.61;100.00;102412.84;5045506;28;19917;-87
2023/05/24 08:10:28;;;;;;;;;;;;;;;13.50;100.00;102410.00;5025602;28;19925;-86
2023/05/24 08:12:54;;;;;;;;;;;;;;;13.72;100.00;102411.28;5041495;28;19927;-86
2023/05/24 08:15:20;;;;;;;;;;;;;;;13.88;100.00;102411.97;5057154;28;19924;-87
2023/05/24 08:17:45;;;;;;;;;;;;;;;14.17;100.00;102403.75;5027135;28;19931;-85
2023/05/24 08:20:14;;;;;;;;;;;;;;;14.64;100.00;102406.84;5024126;28;20397;-82
2023/05/24 08:22:46;;;;;;;;;;;;;;;14.97;100.00;102394.59;5041937;28;19925;-88
2023/05/24 08:25:21;;;;;;;;;;;;;;;15.21;100.00;102399.22;5025723;28;20562;-88
2023/05/24 08:27:56;;;;;;;;;;;;;;;;;;;;;
2023/05/24 08:30:22;;;;;;;;;;;;;;;14.77;100.00;102398.75;5032296;28;20258;-86
2023/05/24 08:32:47;;;;;;;;;;;;;;;14.67;100.00;102403.91;5027398;28;19917;-88
2023/05/24 08:35:12;;;;;;;;;;;;;;;14.44;100.00;102393.81;5037921;28;19940;-87
2023/05/24 08:37:40;;;;;;;;;;;;;;;14.28;100.00;102399.47;5045207;28;20552;-87
2023/05/24 08:40:08;;;;;;;;;;;;;;;14.02;100.00;102402.09;5027210;28;19999;-88
2023/05/24 08:42:36;;;;;;;;;;;;;;;13.95;100.00;102405.22;5025940;28;19921;-87
2023/05/24 08:45:08;;;;;;;;;;;;;;;13.76;100.00;102397.47;5030083;28;20355;-86
2023/05/24 08:47:33;;;;;;;;;;;;;;;13.70;100.00;102405.13;5036430;28;19927;-87
2023/05/24 08:49:59;;;;;;;;;;;;;;;14.01;100.00;102405.78;5024655;28;19925;-87
2023/05/24 08:52:25;;;;;;;;;;;;;;;14.36;100.00;102411.47;5027190;28;20045;-87
2023/05/24 08:54:50;;;;;;;;;;;;;;;14.49;100.00;102399.78;5035326;28;20305;-87
2023/05/24 08:57:15;;;;;;;;;;;;;;;15.04;100.00;102404.97;5041064;28;19920;-87
2023/05/24 08:59:41;;;;;;;;;;;;;;;14.99;93.94;102405.31;5045308;28;20599;-87
2023/05/24 09:02:08;;;;;;;;;;;;;;;15.18;94.99;102402.16;5053334;28;19927;-88
2023/05/24 09:04:46;;;;;;;;;;;;;;;15.35;98.22;102391.94;5019786;28;19921;-87
2023/05/24 09:09:59;;;;;;;;;;;;;;;15.45;99.50;102393.00;5042278;28;19967;-87
2023/05/24 09:12:26;;;;;;;;;;;;;;;15.23;94.30;102388.28;5034879;28;20016;-86
2023/05/24 09:14:54;;;;;;;;;;;;;;;15.13;94.90;102388.94;5027787;28;19924;-87
2023/05/24 09:17:19;;;;;;;;;;;;;;;15.30;95.34;102387.72;5029276;28;19921;-89
2023/05/24 09:19:51;;;;;;;;;;;;;;;15.47;91.16;102391.03;5023816;28;19931;-87
2023/05/24 09:22:22;;;;;;;;;;;;;;;15.24;97.83;102388.16;5028979;28;20270;-87
2023/05/24 09:24:50;;;;;;;;;;;;;;;15.30;89.08;102387.72;5022097;28;19917;-88
2023/05/24 09:27:20;;;;;;;;;;;;;;;15.28;85.46;102392.38;5020331;28;19931;-88
2023/05/24 09:29:47;;;;;;;;;;;;;;;15.48;82.20;102389.19;5041926;28;19925;-87
2023/05/24 09:32:13;;;;;;;;;;;;;;;15.70;83.95;102393.88;5033344;28;20264;-83
2023/05/24 09:34:43;;;;;;;;;;;;;;;15.58;87.18;102391.09;5029149;28;19923;-88
2023/05/24 09:37:18;;;;;;;;;;;;;;;15.44;87.31;102393.97;5023579;28;20354;-88
2023/05/24 09:39:46;;;;;;;;;;;;;;;15.44;85.42;102391.25;5030453;28;19985;-89
2023/05/24 09:42:51;;;;;;;;;;;;;;;14.96;86.45;102398.28;5047055;28;19932;-86
2023/05/24 09:45:18;;;;;;;;;;;;;;;14.80;83.25;102398.53;5017811;28;20016;-87
2023/05/24 09:50:46;;;;;;;;;;;;;;;14.70;87.82;102390.19;5009637;28;19959;-87
2023/05/24 09:53:31;;;;;;;;;;;;;;;;;;;;;
2023/05/24 09:56:00;;;;;;;;;;;;;;;14.32;94.47;102388.31;5041531;28;20607;-86
2023/05/24 09:58:31;;;;;;;;;;;;;;;14.25;93.93;102387.00;5036516;28;19929;-87
2023/05/24 10:01:17;;;;;;;;;;;;;;;14.38;91.43;102396.00;5055827;28;19931;-87
2023/05/24 10:04:05;;;;;;;;;;;;;;;14.42;96.80;102388.53;5038240;28;19917;-87
2023/05/24 10:06:32;;;;;;;;;;;;;;;14.57;98.22;102404.69;5034323;28;19925;-87
2023/05/24 10:09:02;;;;;;;;;;;;;;;14.78;98.12;102402.31;5039765;28;19920;-87
2023/05/24 10:11:29;;;;;;;;;;;;;;;15.03;92.94;102400.53;5038192;28;19921;-87
2023/05/24 10:13:54;;;;;;;;;;;;;;;15.23;86.79;102393.69;5031387;28;20438;-87
2023/05/24 10:16:22;;;;;;;;;;;;;;;15.45;92.01;102404.66;5019725;28;19932;-87
2023/05/24 10:18:55;;;;;;;;;;;;;;;15.62;89.92;102401.69;5060030;28;19920;-87
2023/05/24 10:21:20;;;;;;;;;;;;;;;15.49;81.08;102397.19;5026073;28;19925;-86
2023/05/24 10:23:50;;;;;;;;;;;;;;;15.48;86.75;102384.66;5016376;28;19921;-88
2023/05/24 10:26:15;;;;;;;;;;;;;;;15.66;88.81;102390.50;5041849;28;19927;-87
2023/05/24 10:28:41;;;;;;;;;;;;;;;15.65;88.03;102390.63;5016488;28;19921;-86
2023/05/24 10:31:14;;;;;;;;;;;;;;;15.73;87.16;102386.38;5040958;28;19955;-88
2023/05/24 10:33:42;;;;;;;;;;;;;;;15.68;87.30;102377.72;5038451;28;20195;-88
2023/05/24 10:36:11;;;;;;;;;;;;;;;15.72;85.42;102384.63;5037278;28;20015;-87
2023/05/24 10:38:38;;;;;;;;;;;;;;;15.66;90.93;102385.09;5021109;28;19932;-88
2023/05/24 10:41:09;;;;;;;;;;;;;;;15.54;86.50;102388.72;5041883;28;20015;-87
2023/05/24 10:43:35;;;;;;;;;;;;;;;15.25;84.05;102389.88;5025639;28;19942;-88
2023/05/24 10:46:04;;;;;;;;;;;;;;;15.27;85.23;102390.66;5023634;28;19927;-87
2023/05/24 10:48:52;;;;;;;;;;;;;;;15.14;89.54;102396.09;5045190;28;19935;-87
2023/05/24 10:51:32;;;;;;;;;;;;;;;15.11;88.81;102398.16;5042590;28;19927;-88
2023/05/24 10:54:09;;;;;;;;;;;;;;;15.04;92.14;102394.16;5036539;28;20573;-88
2023/05/24 10:56:38;;;;;;;;;;;;;;;15.00;88.36;102386.25;5020702;28;19930;-88
2023/05/24 10:59:07;;;;;;;;;;;;;;;15.27;87.97;102381.69;5037446;28;20015;-86
2023/05/24 11:01:51;;;;;;;;;;;;;;;;;;;;;
2023/05/24 11:04:17;;;;;;;;;;;;;;;15.93;85.93;102381.31;5038641;28;19926;-88
2023/05/24 11:06:47;;;;;;;;;;;;;;;16.05;80.57;102382.22;5044620;28;19916;-82
2023/05/24 11:09:13;;;;;;;;;;;;;;;16.09;81.41;102383.69;5051411;28;19928;-87
2023/05/24 11:11:43;;;;;;;;;;;;;;;16.40;78.46;102369.63;5028123;28;19921;-85
2023/05/24 11:14:09;;;;;;;;;;;;;;;16.52;83.87;102374.06;5044863;28;19921;-87
2023/05/24 11:16:40;;;;;;;;;;;;;;;16.49;77.75;102377.03;5057842;28;19928;-87
2023/05/24 11:19:19;;;;;;;;;;;;;;;16.43;78.70;102375.66;5026920;28;19925;-87
2023/05/24 11:21:45;;;;;;;;;;;;;;;15.94;76.67;102371.34;5031347;28;19916;-87
2023/05/24 11:24:10;;;;;;;;;;;;;;;15.89;78.42;102371.72;5030062;28;20454;-88
2023/05/24 11:26:41;;;;;;;;;;;;;;;15.59;79.75;102381.97;5026846;28;19921;-88
2023/05/24 11:29:07;;;;;;;;;;;;;;;15.52;78.34;102374.44;5038867;28;19968;-88
2023/05/24 11:31:32;;;;;;;;;;;;;;;15.50;83.89;102379.09;5026284;28;20028;-87
2023/05/24 11:34:13;;;;;;;;;;;;;;;15.34;86.54;102371.25;5026207;28;20007;-87
2023/05/24 11:36:38;;;;;;;;;;;;;;;15.17;85.11;102378.78;5022194;28;19924;-87
2023/05/24 11:39:07;;;;;;;;;;;;;;;15.32;83.66;102375.91;5030787;28;20301;-86
2023/05/24 11:41:36;;;;;;;;;;;;;;;15.29;83.66;102374.31;5027035;28;19921;-87
2023/05/24 11:44:08;;;;;;;;;;;;;;;15.21;85.33;102379.41;5024733;28;19920;-87
2023/05/24 11:46:34;;;;;;;;;;;;;;;15.23;84.62;102380.16;5043524;28;20392;-86
2023/05/24 11:49:01;;;;;;;;;;;;;;;15.24;85.05;102379.19;5042277;28;19929;-87
2023/05/24 11:51:30;;;;;;;;;;;;;;;15.47;85.41;102373.91;5025501;28;19928;-86
2023/05/24 11:53:56;;;;;;;;;;;;;;;15.79;80.22;102371.47;5026926;28;20438;-87
2023/05/24 11:56:25;;;;;;;;;;;;;;;16.31;79.15;102372.06;5029221;28;20015;-86
2023/05/24 11:58:50;;;;;;;;;;;;;;;17.64;74.27;102367.81;5025619;28;19932;-86
2023/05/24 12:01:22;;;;;;;;;;;;;;;17.91;70.18;102364.59;5027017;28;19921;-86
2023/05/24 12:03:47;;;;;;;;;;;;;;;17.88;63.40;102359.44;5028430;28;19920;-86
2023/05/24 12:06:23;;;;;;;;;;;;;;;17.57;65.49;102370.19;5042755;28;20253;-87
2023/05/24 12:08:48;;;;;;;;;;;;;;;17.21;68.75;102364.97;5041052;28;20377;-87
2023/05/24 12:11:14;;;;;;;;;;;;;;;17.31;77.56;102361.50;5035731;28;20024;-87
2023/05/24 12:13:40;;;;;;;;;;;;;;;17.29;67.32;102360.75;5023968;28;20471;-86
2023/05/24 12:16:06;;;;;;;;;;;;;;;17.23;68.48;102352.13;5044348;28;19996;-86
2023/05/24 12:18:32;;;;;;;;;;;;;;;17.44;70.34;102355.91;5027485;28;20341;-87
2023/05/24 12:20:57;;;;;;;;;;;;;;;18.24;66.12;102361.88;5023684;28;19931;-87
2023/05/24 12:23:24;;;;;;;;;;;;;;;18.38;67.43;102364.25;5026573;28;19917;-87
2023/05/24 12:25:49;;;;;;;;;;;;;;;18.12;62.36;102355.66;5024044;28;20383;-84
2023/05/24 12:28:15;;;;;;;;;;;;;;;17.95;67.24;102357.06;5025694;28;19921;-86
2023/05/24 12:30:42;;;;;;;;;;;;;;;17.91;65.29;102359.16;5019429;28;19925;-84
2023/05/24 12:33:10;;;;;;;;;;;;;;;19.03;63.36;102352.25;5026948;28;19921;-87
2023/05/24 12:35:41;;;;;;;;;;;;;;;20.75;61.20;102351.75;5024221;28;20445;-86
2023/05/24 12:38:07;;;;;;;;;;;;;;;20.43;58.28;102355.75;5025060;28;20027;-86
2023/05/24 12:40:35;;;;;;;;;;;;;;;19.75;58.52;102349.34;5026733;28;19936;-86
2023/05/24 12:43:01;;;;;;;;;;;;;;;18.85;58.48;102363.78;5041955;28;19971;-86
2023/05/24 12:45:26;;;;;;;;;;;;;;;18.42;59.76;102353.97;5025680;28;19949;-87